createdAt,value
2018-06-21T00:00:22.968Z,0.00
2018-06-21T00:01:22.973Z,0.00
2018-06-21T00:02:22.981Z,0.00
2018-06-21T00:03:22.985Z,0.00
2018-06-21T00:04:22.991Z,0.00
2018-06-21T00:05:22.996Z,0.00
2018-06-21T00:06:23.002Z,0.00
2018-06-21T00:07:23.009Z,0.00
2018-06-21T00:08:23.014Z,0.00
2018-06-21T00:09:23.012Z,0.00
2018-06-21T00:10:23.027Z,0.00
2018-06-21T00:11:23.029Z,0.00
2018-06-21T00:12:23.038Z,0.00
2018-06-21T00:13:23.039Z,0.00
2018-06-21T00:14:23.048Z,0.00
2018-06-21T00:15:23.053Z,0.00
2018-06-21T00:16:23.058Z,0.00
2018-06-21T00:17:23.059Z,0.00
2018-06-21T00:18:23.111Z,0.00
2018-06-21T00:19:23.071Z,0.00
2018-06-21T00:20:23.079Z,0.00
2018-06-21T00:21:23.085Z,0.00
2018-06-21T00:22:23.092Z,0.00
2018-06-21T00:23:23.100Z,0.00
2018-06-21T00:24:23.104Z,0.00
2018-06-21T00:25:23.112Z,0.00
2018-06-21T00:26:23.116Z,0.00
2018-06-21T00:27:23.120Z,0.00
2018-06-21T00:28:23.126Z,0.00
2018-06-21T00:29:23.183Z,0.00
2018-06-21T00:30:23.138Z,0.00
2018-06-21T00:31:23.142Z,0.00
2018-06-21T00:32:23.148Z,0.00
2018-06-21T00:33:23.153Z,0.00
2018-06-21T00:34:23.158Z,0.00
2018-06-21T00:35:23.164Z,0.00
2018-06-21T00:36:23.173Z,0.00
2018-06-21T00:37:23.178Z,0.00
2018-06-21T00:38:23.180Z,0.00
2018-06-21T00:39:23.186Z,0.00
2018-06-21T00:40:23.192Z,0.00
2018-06-21T00:41:23.190Z,0.00
2018-06-21T00:42:23.202Z,0.00
2018-06-21T00:43:23.209Z,0.00
2018-06-21T00:44:23.213Z,0.00
2018-06-21T00:45:23.216Z,0.00
2018-06-21T00:46:23.225Z,0.00
2018-06-21T00:47:23.229Z,0.00
2018-06-21T00:48:23.234Z,0.00
2018-06-21T00:49:23.246Z,0.00
2018-06-21T00:50:23.245Z,0.00
2018-06-21T00:51:23.249Z,0.00
2018-06-21T00:52:23.253Z,0.00
2018-06-21T00:53:23.261Z,0.00
2018-06-21T00:54:23.269Z,0.00
2018-06-21T00:55:23.271Z,0.00
2018-06-21T00:56:23.276Z,0.00
2018-06-21T00:57:23.280Z,0.00
2018-06-21T00:58:23.287Z,0.00
2018-06-21T00:59:23.290Z,0.00
2018-06-21T01:00:23.296Z,0.00
2018-06-21T01:01:23.304Z,0.00
2018-06-21T01:02:23.307Z,0.00
2018-06-21T01:03:23.312Z,0.00
2018-06-21T01:04:23.320Z,0.00
2018-06-21T01:05:23.317Z,0.00
2018-06-21T01:06:23.327Z,0.00
2018-06-21T01:07:23.330Z,0.00
2018-06-21T01:08:23.336Z,0.00
2018-06-21T01:09:23.337Z,0.00
2018-06-21T01:10:23.347Z,0.00
2018-06-21T01:11:23.351Z,0.00
2018-06-21T01:12:23.356Z,0.00
2018-06-21T01:13:23.364Z,0.00
2018-06-21T01:14:23.366Z,0.00
2018-06-21T01:15:23.374Z,0.00
2018-06-21T01:16:23.377Z,0.00
2018-06-21T01:17:23.384Z,0.00
2018-06-21T01:18:23.390Z,0.00
2018-06-21T01:19:23.393Z,0.00
2018-06-21T01:20:23.400Z,0.00
2018-06-21T01:21:23.404Z,0.00
2018-06-21T01:22:23.408Z,0.00
2018-06-21T01:23:23.415Z,0.00
2018-06-21T01:24:23.417Z,0.00
2018-06-21T01:25:23.426Z,0.00
2018-06-21T01:26:23.428Z,0.00
2018-06-21T01:27:23.435Z,0.00
2018-06-21T01:28:23.437Z,0.00
2018-06-21T01:29:23.441Z,0.00
2018-06-21T01:30:23.455Z,0.00
2018-06-21T01:31:23.450Z,0.00
2018-06-21T01:32:23.460Z,0.00
2018-06-21T01:33:23.461Z,0.00
2018-06-21T01:34:23.468Z,0.00
2018-06-21T01:35:23.471Z,0.00
2018-06-21T01:36:23.475Z,0.00
2018-06-21T01:37:23.480Z,0.00
2018-06-21T01:38:23.491Z,0.00
2018-06-21T01:39:23.493Z,0.00
2018-06-21T01:40:23.495Z,0.00
2018-06-21T01:41:23.501Z,0.00
2018-06-21T01:42:23.507Z,0.00
2018-06-21T01:43:23.511Z,0.00
2018-06-21T01:44:23.509Z,0.00
2018-06-21T01:45:23.520Z,0.00
2018-06-21T01:46:23.522Z,0.00
2018-06-21T01:47:23.531Z,0.00
2018-06-21T01:48:23.533Z,0.00
2018-06-21T01:49:23.544Z,0.00
2018-06-21T01:50:23.538Z,0.00
2018-06-21T01:51:23.551Z,0.00
2018-06-21T01:52:23.551Z,0.00
2018-06-21T01:53:23.556Z,0.00
2018-06-21T01:54:23.564Z,0.00
2018-06-21T01:55:23.569Z,0.00
2018-06-21T01:56:23.571Z,0.00
2018-06-21T01:57:23.577Z,0.00
2018-06-21T01:58:23.584Z,0.00
2018-06-21T01:59:23.590Z,0.00
2018-06-21T02:00:23.591Z,0.00
2018-06-21T02:01:23.593Z,0.00
2018-06-21T02:02:23.601Z,0.00
2018-06-21T02:03:23.601Z,0.00
2018-06-21T02:04:23.609Z,0.00
2018-06-21T02:05:23.615Z,0.00
2018-06-21T02:06:23.619Z,0.00
2018-06-21T02:07:23.625Z,0.00
2018-06-21T02:08:23.630Z,0.00
2018-06-21T02:09:23.638Z,4.00
2018-06-21T02:10:23.641Z,4.00
2018-06-21T02:11:23.645Z,4.00
2018-06-21T02:12:23.648Z,0.00
2018-06-21T02:13:23.651Z,0.00
2018-06-21T02:14:23.653Z,4.00
2018-06-21T02:15:23.662Z,4.00
2018-06-21T02:16:23.665Z,0.00
2018-06-21T02:17:23.670Z,4.00
2018-06-21T02:18:23.676Z,4.00
2018-06-21T02:19:23.677Z,4.00
2018-06-21T02:20:23.683Z,8.00
2018-06-21T02:21:23.687Z,4.00
2018-06-21T02:22:23.696Z,8.00
2018-06-21T02:23:23.697Z,8.00
2018-06-21T02:24:23.694Z,8.00
2018-06-21T02:25:23.704Z,8.00
2018-06-21T02:26:23.710Z,8.00
2018-06-21T02:27:23.717Z,12.00
2018-06-21T02:28:23.715Z,12.00
2018-06-21T02:29:23.723Z,16.00
2018-06-21T02:30:23.730Z,16.00
2018-06-21T02:31:23.732Z,20.00
2018-06-21T02:32:23.739Z,20.00
2018-06-21T02:33:23.748Z,24.00
2018-06-21T02:34:23.781Z,28.00
2018-06-21T02:35:23.752Z,32.00
2018-06-21T02:36:23.751Z,36.00
2018-06-21T02:37:23.758Z,40.00
2018-06-21T02:38:23.764Z,40.00
2018-06-21T02:39:23.770Z,48.00
2018-06-21T02:40:23.775Z,56.00
2018-06-21T02:41:23.775Z,56.00
2018-06-21T02:42:23.780Z,64.00
2018-06-21T02:43:23.788Z,72.00
2018-06-21T02:44:23.789Z,76.00
2018-06-21T02:45:23.793Z,84.00
2018-06-21T02:46:23.805Z,92.00
2018-06-21T02:47:23.802Z,100.00
2018-06-21T02:48:23.807Z,112.00
2018-06-21T02:49:23.819Z,120.00
2018-06-21T02:50:23.817Z,132.00
2018-06-21T02:51:23.819Z,140.00
2018-06-21T02:52:23.823Z,152.00
2018-06-21T02:53:23.827Z,164.00
2018-06-21T02:54:23.831Z,176.00
2018-06-21T02:55:23.828Z,192.00
2018-06-21T02:56:23.834Z,204.00
2018-06-21T02:57:23.844Z,220.00
2018-06-21T02:58:23.846Z,232.00
2018-06-21T02:59:23.858Z,248.00
2018-06-21T03:00:23.855Z,264.00
2018-06-21T03:01:23.855Z,280.00
2018-06-21T03:02:23.864Z,300.00
2018-06-21T03:03:23.871Z,316.00
2018-06-21T03:04:23.877Z,336.00
2018-06-21T03:05:23.879Z,352.00
2018-06-21T03:06:23.884Z,372.00
2018-06-21T03:07:23.887Z,396.00
2018-06-21T03:08:23.893Z,416.00
2018-06-21T03:09:23.896Z,440.00
2018-06-21T03:10:23.895Z,460.00
2018-06-21T03:11:23.906Z,480.00
2018-06-21T03:12:23.906Z,508.00
2018-06-21T03:13:23.912Z,532.00
2018-06-21T03:14:23.917Z,556.00
2018-06-21T03:15:23.920Z,580.00
2018-06-21T03:16:23.923Z,608.00
2018-06-21T03:17:23.928Z,632.00
2018-06-21T03:18:23.934Z,660.00
2018-06-21T03:19:23.936Z,688.00
2018-06-21T03:20:23.938Z,708.00
2018-06-21T03:21:23.945Z,736.00
2018-06-21T03:22:23.949Z,764.00
2018-06-21T03:23:23.951Z,788.00
2018-06-21T03:24:23.961Z,816.00
2018-06-21T03:25:23.957Z,844.00
2018-06-21T03:26:23.961Z,868.00
2018-06-21T03:27:23.966Z,896.00
2018-06-21T03:28:23.972Z,924.00
2018-06-21T03:29:23.981Z,952.00
2018-06-21T03:30:23.988Z,976.00
2018-06-21T03:31:23.990Z,1004.00
2018-06-21T03:32:23.986Z,1032.00
2018-06-21T03:33:24.002Z,1056.00
2018-06-21T03:34:24.005Z,1080.00
2018-06-21T03:35:24.007Z,1104.00
2018-06-21T03:36:24.007Z,1132.00
2018-06-21T03:37:24.009Z,1160.00
2018-06-21T03:38:24.021Z,1176.00
2018-06-21T03:39:24.020Z,1200.00
2018-06-21T03:40:24.025Z,1224.00
2018-06-21T03:41:24.029Z,1240.00
2018-06-21T03:42:24.032Z,1268.00
2018-06-21T03:43:24.039Z,1292.00
2018-06-21T03:44:24.041Z,1320.00
2018-06-21T03:45:24.049Z,1340.00
2018-06-21T03:46:24.052Z,1368.00
2018-06-21T03:47:24.063Z,1388.00
2018-06-21T03:48:24.056Z,1412.00
2018-06-21T03:49:24.062Z,1432.00
2018-06-21T03:50:24.068Z,1452.00
2018-06-21T03:51:24.071Z,1472.00
2018-06-21T03:52:24.075Z,1492.00
2018-06-21T03:53:24.082Z,1504.00
2018-06-21T03:54:24.084Z,1520.00
2018-06-21T03:55:24.093Z,1540.00
2018-06-21T03:56:24.092Z,1552.00
2018-06-21T03:57:24.097Z,1572.00
2018-06-21T03:58:24.095Z,1588.00
2018-06-21T03:59:24.104Z,1604.00
2018-06-21T04:00:24.105Z,1620.00
2018-06-21T04:01:24.114Z,1636.00
2018-06-21T04:02:24.119Z,1652.00
2018-06-21T04:03:24.123Z,1672.00
2018-06-21T04:04:24.121Z,1692.00
2018-06-21T04:05:24.134Z,1712.00
2018-06-21T04:06:24.135Z,1736.00
2018-06-21T04:07:24.134Z,1756.00
2018-06-21T04:08:24.194Z,1776.00
2018-06-21T04:09:24.144Z,1800.00
2018-06-21T04:10:24.152Z,1816.00
2018-06-21T04:11:24.160Z,1832.00
2018-06-21T04:12:24.160Z,1840.00
2018-06-21T04:13:24.166Z,1852.00
2018-06-21T04:14:24.169Z,1860.00
2018-06-21T04:15:24.173Z,1868.00
2018-06-21T04:16:24.177Z,1880.00
2018-06-21T04:17:24.221Z,1884.00
2018-06-21T04:18:24.189Z,1888.00
2018-06-21T04:19:24.193Z,1936.00
2018-06-21T04:20:24.197Z,1956.00
2018-06-21T04:21:24.202Z,1976.00
2018-06-21T04:22:24.204Z,1992.00
2018-06-21T04:23:24.209Z,2008.00
2018-06-21T04:24:24.214Z,2020.00
2018-06-21T04:25:24.216Z,2040.00
2018-06-21T04:26:24.224Z,2052.00
2018-06-21T04:27:24.225Z,2064.00
2018-06-21T04:28:24.230Z,2072.00
2018-06-21T04:29:24.237Z,2080.00
2018-06-21T04:30:24.240Z,2092.00
2018-06-21T04:31:24.246Z,2108.00
2018-06-21T04:32:24.282Z,2112.00
2018-06-21T04:33:24.261Z,2124.00
2018-06-21T04:34:24.258Z,2140.00
2018-06-21T04:35:24.267Z,2152.00
2018-06-21T04:36:24.265Z,2172.00
2018-06-21T04:37:24.271Z,2176.00
2018-06-21T04:38:24.278Z,2184.00
2018-06-21T04:39:24.285Z,2196.00
2018-06-21T04:40:24.286Z,2204.00
2018-06-21T04:41:24.288Z,2208.00
2018-06-21T04:42:24.296Z,2216.00
2018-06-21T04:43:24.299Z,2224.00
2018-06-21T04:44:24.298Z,2232.00
2018-06-21T04:45:24.303Z,2240.00
2018-06-21T04:46:24.312Z,2248.00
2018-06-21T04:47:24.318Z,2248.00
2018-06-21T04:48:24.322Z,2252.00
2018-06-21T04:49:24.332Z,2256.00
2018-06-21T04:50:24.337Z,2264.00
2018-06-21T04:51:24.336Z,2264.00
2018-06-21T04:52:24.341Z,2276.00
2018-06-21T04:53:24.345Z,2284.00
2018-06-21T04:54:24.349Z,2300.00
2018-06-21T04:55:24.356Z,2308.00
2018-06-21T04:56:24.360Z,2316.00
2018-06-21T04:57:24.365Z,2324.00
2018-06-21T04:58:24.370Z,2336.00
2018-06-21T04:59:24.376Z,2352.00
2018-06-21T05:00:24.386Z,2356.00
2018-06-21T05:01:24.385Z,2364.00
2018-06-21T05:02:24.393Z,2372.00
2018-06-21T05:03:24.403Z,2384.00
2018-06-21T05:04:24.399Z,2388.00
2018-06-21T05:05:24.400Z,2404.00
2018-06-21T05:06:24.474Z,2416.00
2018-06-21T05:07:24.416Z,2424.00
2018-06-21T05:08:24.420Z,2440.00
2018-06-21T05:09:24.430Z,2448.00
2018-06-21T05:10:24.431Z,2452.00
2018-06-21T05:11:24.435Z,2464.00
2018-06-21T05:12:24.440Z,2476.00
2018-06-21T05:13:24.448Z,2480.00
2018-06-21T05:14:24.452Z,2492.00
2018-06-21T05:15:24.456Z,2500.00
2018-06-21T05:16:24.456Z,2508.00
2018-06-21T05:17:24.468Z,2516.00
2018-06-21T05:18:24.470Z,2528.00
2018-06-21T05:19:24.478Z,2540.00
2018-06-21T05:20:24.485Z,2552.00
2018-06-21T05:21:24.497Z,2572.00
2018-06-21T05:22:24.499Z,2588.00
2018-06-21T05:23:24.500Z,2600.00
2018-06-21T05:24:24.505Z,2604.00
2018-06-21T05:25:24.509Z,2612.00
2018-06-21T05:26:24.514Z,2628.00
2018-06-21T05:27:24.520Z,2644.00
2018-06-21T05:28:24.526Z,2676.00
2018-06-21T05:29:24.528Z,2684.00
2018-06-21T05:30:24.543Z,2700.00
2018-06-21T05:31:24.540Z,2712.00
2018-06-21T05:32:24.543Z,2740.00
2018-06-21T05:33:24.553Z,2768.00
2018-06-21T05:34:24.560Z,2784.00
2018-06-21T05:35:24.565Z,2804.00
2018-06-21T05:36:24.571Z,2824.00
2018-06-21T05:37:24.634Z,2836.00
2018-06-21T05:38:24.586Z,2852.00
2018-06-21T05:39:24.588Z,2860.00
2018-06-21T05:40:24.594Z,2888.00
2018-06-21T05:41:24.599Z,2908.00
2018-06-21T05:42:24.606Z,2936.00
2018-06-21T05:43:24.613Z,2952.00
2018-06-21T05:44:24.644Z,2936.00
2018-06-21T05:45:24.623Z,2880.00
2018-06-21T05:46:24.631Z,2880.00
2018-06-21T05:47:24.635Z,2908.00
2018-06-21T05:48:24.640Z,2932.00
2018-06-21T05:49:24.647Z,2936.00
2018-06-21T05:50:24.653Z,2944.00
2018-06-21T05:51:24.658Z,2956.00
2018-06-21T05:52:24.665Z,2976.00
2018-06-21T05:53:24.673Z,3012.00
2018-06-21T05:54:24.677Z,3056.00
2018-06-21T05:55:24.683Z,3096.00
2018-06-21T05:56:24.683Z,3132.00
2018-06-21T05:57:24.698Z,3160.00
2018-06-21T05:58:24.695Z,3188.00
2018-06-21T05:59:24.704Z,3224.00
2018-06-21T06:00:24.714Z,3288.00
2018-06-21T06:01:24.719Z,3380.00
2018-06-21T06:02:24.726Z,3468.00
2018-06-21T06:03:24.735Z,3568.00
2018-06-21T06:04:24.741Z,3700.00
2018-06-21T06:05:24.745Z,3956.00
2018-06-21T06:06:24.754Z,4288.00
2018-06-21T06:07:24.760Z,4344.00
2018-06-21T06:08:24.817Z,4516.00
2018-06-21T06:09:24.773Z,4808.00
2018-06-21T06:10:24.779Z,4904.00
2018-06-21T06:11:24.802Z,5284.00
2018-06-21T06:12:24.792Z,5352.00
2018-06-21T06:13:24.797Z,4492.00
2018-06-21T06:14:24.801Z,4000.00
2018-06-21T06:15:24.814Z,3720.00
2018-06-21T06:16:24.818Z,4084.00
2018-06-21T06:17:24.828Z,4164.00
2018-06-21T06:18:24.835Z,4792.00
2018-06-21T06:19:24.841Z,4504.00
2018-06-21T06:20:24.841Z,4792.00
2018-06-21T06:21:24.851Z,4392.00
2018-06-21T06:22:24.855Z,5368.00
2018-06-21T06:23:24.870Z,4864.00
2018-06-21T06:24:24.872Z,4688.00
2018-06-21T06:25:24.874Z,4232.00
2018-06-21T06:26:24.883Z,4088.00
2018-06-21T06:27:24.891Z,4560.00
2018-06-21T06:28:24.902Z,4496.00
2018-06-21T06:29:24.910Z,5136.00
2018-06-21T06:30:24.916Z,5588.00
2018-06-21T06:31:24.926Z,5732.00
2018-06-21T06:32:24.936Z,6400.00
2018-06-21T06:33:24.938Z,8060.00
2018-06-21T06:34:24.946Z,8468.00
2018-06-21T06:35:24.954Z,9004.00
2018-06-21T06:36:24.961Z,9272.00
2018-06-21T06:37:24.968Z,8244.00
2018-06-21T06:38:24.980Z,7328.00
2018-06-21T06:39:24.984Z,7336.00
2018-06-21T06:40:25.012Z,6256.00
2018-06-21T06:41:25.000Z,5312.00
2018-06-21T06:42:25.015Z,4052.00
2018-06-21T06:43:25.019Z,3848.00
2018-06-21T06:44:25.033Z,4452.00
2018-06-21T06:45:25.032Z,5244.00
2018-06-21T06:46:25.040Z,5604.00
2018-06-21T06:47:25.052Z,5576.00
2018-06-21T06:48:25.053Z,5680.00
2018-06-21T06:49:25.061Z,6040.00
2018-06-21T06:50:25.071Z,5728.00
2018-06-21T06:51:25.076Z,6012.00
2018-06-21T06:52:25.086Z,5944.00
2018-06-21T06:53:25.094Z,5672.00
2018-06-21T06:54:25.158Z,6840.00
2018-06-21T06:55:25.113Z,7980.00
2018-06-21T06:56:25.117Z,8568.00
2018-06-21T06:57:25.125Z,8540.00
2018-06-21T06:58:25.133Z,8584.00
2018-06-21T06:59:25.143Z,8728.00
2018-06-21T07:00:25.149Z,8988.00
2018-06-21T07:01:25.160Z,9600.00
2018-06-21T07:02:25.170Z,7980.00
2018-06-21T07:03:25.175Z,7684.00
2018-06-21T07:04:25.181Z,7528.00
2018-06-21T07:05:25.193Z,6608.00
2018-06-21T07:06:25.200Z,6760.00
2018-06-21T07:07:25.209Z,7376.00
2018-06-21T07:08:25.264Z,8296.00
2018-06-21T07:09:25.218Z,9320.00
2018-06-21T07:10:25.233Z,9876.00
2018-06-21T07:11:25.242Z,10336.00
2018-06-21T07:12:25.250Z,10148.00
2018-06-21T07:13:25.258Z,10468.00
2018-06-21T07:14:25.309Z,10764.00
2018-06-21T07:15:25.275Z,10180.00
2018-06-21T07:16:25.284Z,9612.00
2018-06-21T07:17:25.298Z,10144.00
2018-06-21T07:18:25.306Z,9572.00
2018-06-21T07:19:25.313Z,8184.00
2018-06-21T07:20:25.345Z,7268.00
2018-06-21T07:21:25.325Z,7084.00
2018-06-21T07:22:25.339Z,7212.00
2018-06-21T07:23:25.350Z,7592.00
2018-06-21T07:24:25.357Z,6396.00
2018-06-21T07:25:25.367Z,4168.00
2018-06-21T07:26:25.378Z,4564.00
2018-06-21T07:27:25.385Z,5544.00
2018-06-21T07:28:25.402Z,6976.00
2018-06-21T07:29:25.402Z,8104.00
2018-06-21T07:30:25.413Z,7412.00
2018-06-21T07:31:25.420Z,6688.00
2018-06-21T07:32:25.425Z,5520.00
2018-06-21T07:33:25.475Z,4880.00
2018-06-21T07:34:25.448Z,5076.00
2018-06-21T07:35:25.457Z,6164.00
2018-06-21T07:36:25.465Z,6856.00
2018-06-21T07:37:25.472Z,5456.00
2018-06-21T07:38:25.484Z,5032.00
2018-06-21T07:39:25.494Z,4468.00
2018-06-21T07:40:25.539Z,4236.00
2018-06-21T07:41:25.511Z,4016.00
2018-06-21T07:42:25.518Z,4372.00
2018-06-21T07:43:25.529Z,4440.00
2018-06-21T07:44:25.538Z,4660.00
2018-06-21T07:45:25.541Z,5036.00
2018-06-21T07:46:25.559Z,5276.00
2018-06-21T07:47:25.565Z,4876.00
2018-06-21T07:48:25.573Z,4120.00
2018-06-21T07:49:25.580Z,4216.00
2018-06-21T07:50:25.590Z,3936.00
2018-06-21T07:51:25.604Z,4740.00
2018-06-21T07:52:25.603Z,5232.00
2018-06-21T07:53:25.619Z,5788.00
2018-06-21T07:54:25.624Z,6740.00
2018-06-21T07:55:25.639Z,6460.00
2018-06-21T07:56:25.641Z,5160.00
2018-06-21T07:57:25.654Z,4256.00
2018-06-21T07:58:25.661Z,4076.00
2018-06-21T07:59:25.668Z,5068.00
2018-06-21T08:00:25.680Z,5760.00
2018-06-21T08:01:25.690Z,5900.00
2018-06-21T08:02:25.698Z,4816.00
2018-06-21T08:03:25.701Z,4732.00
2018-06-21T08:04:25.716Z,4656.00
2018-06-21T08:05:25.723Z,4784.00
2018-06-21T08:06:25.734Z,4640.00
2018-06-21T08:07:25.743Z,4384.00
2018-06-21T08:08:25.749Z,4724.00
2018-06-21T08:09:25.758Z,5048.00
2018-06-21T08:10:25.778Z,5120.00
2018-06-21T08:11:25.777Z,5092.00
2018-06-21T08:12:25.788Z,4576.00
2018-06-21T08:13:25.794Z,5108.00
2018-06-21T08:14:25.804Z,4748.00
2018-06-21T08:15:25.825Z,5432.00
2018-06-21T08:16:25.821Z,5096.00
2018-06-21T08:17:25.829Z,4652.00
2018-06-21T08:18:25.838Z,4504.00
2018-06-21T08:19:25.850Z,4480.00
2018-06-21T08:20:26.651Z,4184.00
2018-06-21T08:21:25.863Z,4708.00
2018-06-21T08:22:25.875Z,5260.00
2018-06-21T08:23:25.877Z,5788.00
2018-06-21T08:24:25.897Z,6112.00
2018-06-21T08:25:25.900Z,6112.00
2018-06-21T08:26:25.912Z,7148.00
2018-06-21T08:27:25.919Z,8524.00
2018-06-21T08:28:25.927Z,9360.00
2018-06-21T08:29:25.931Z,9160.00
2018-06-21T08:30:25.950Z,8524.00
2018-06-21T08:31:25.966Z,6624.00
2018-06-21T08:32:25.962Z,5392.00
2018-06-21T08:33:25.984Z,4860.00
2018-06-21T08:34:25.982Z,4672.00
2018-06-21T08:35:25.992Z,4416.00
2018-06-21T08:36:25.999Z,5424.00
2018-06-21T08:37:26.010Z,5764.00
2018-06-21T08:38:26.019Z,5768.00
2018-06-21T08:39:26.031Z,6668.00
2018-06-21T08:40:26.037Z,6276.00
2018-06-21T08:41:26.044Z,6364.00
2018-06-21T08:42:26.053Z,6412.00
2018-06-21T08:43:26.064Z,5644.00
2018-06-21T08:44:26.071Z,4924.00
2018-06-21T08:45:26.079Z,5500.00
2018-06-21T08:46:26.088Z,4740.00
2018-06-21T08:47:26.099Z,5676.00
2018-06-21T08:48:26.109Z,6496.00
2018-06-21T08:49:26.118Z,6616.00
2018-06-21T08:50:26.129Z,6492.00
2018-06-21T08:51:26.135Z,6908.00
2018-06-21T08:52:26.161Z,6120.00
2018-06-21T08:53:26.158Z,5844.00
2018-06-21T08:54:26.164Z,5536.00
2018-06-21T08:55:26.175Z,5544.00
2018-06-21T08:56:26.183Z,5904.00
2018-06-21T08:57:26.190Z,7812.00
2018-06-21T08:58:26.257Z,8720.00
2018-06-21T08:59:26.204Z,7972.00
2018-06-21T09:00:26.220Z,6872.00
2018-06-21T09:01:26.232Z,6432.00
2018-06-21T09:02:26.240Z,6252.00
2018-06-21T09:03:26.248Z,6588.00
2018-06-21T09:04:26.255Z,6440.00
2018-06-21T09:05:26.265Z,6752.00
2018-06-21T09:06:26.275Z,5224.00
2018-06-21T09:07:26.284Z,4436.00
2018-06-21T09:08:26.294Z,5512.00
2018-06-21T09:09:26.305Z,5768.00
2018-06-21T09:10:26.312Z,5312.00
2018-06-21T09:11:26.324Z,4368.00
2018-06-21T09:12:26.330Z,5048.00
2018-06-21T09:13:26.337Z,4656.00
2018-06-21T09:14:26.349Z,5304.00
2018-06-21T09:15:26.448Z,5164.00
2018-06-21T09:16:26.365Z,5476.00
2018-06-21T09:17:26.378Z,6880.00
2018-06-21T09:18:26.386Z,6124.00
2018-06-21T09:19:26.397Z,6972.00
2018-06-21T09:20:26.405Z,7028.00
2018-06-21T09:21:26.416Z,7156.00
2018-06-21T09:22:26.424Z,7492.00
2018-06-21T09:23:26.434Z,8292.00
2018-06-21T09:24:26.447Z,7692.00
2018-06-21T09:25:26.453Z,8092.00
2018-06-21T09:26:26.463Z,8436.00
2018-06-21T09:27:26.470Z,9724.00
2018-06-21T09:28:26.479Z,9460.00
2018-06-21T09:29:26.488Z,8024.00
2018-06-21T09:30:26.494Z,7156.00
2018-06-21T09:31:26.508Z,7988.00
2018-06-21T09:32:26.517Z,8212.00
2018-06-21T09:33:26.527Z,7088.00
2018-06-21T09:34:26.532Z,6216.00
2018-06-21T09:35:26.548Z,5476.00
2018-06-21T09:36:26.559Z,6384.00
2018-06-21T09:37:26.567Z,7944.00
2018-06-21T09:38:26.578Z,7712.00
2018-06-21T09:39:26.586Z,7576.00
2018-06-21T09:40:26.600Z,8572.00
2018-06-21T09:41:26.607Z,8508.00
2018-06-21T09:42:26.617Z,9600.00
2018-06-21T09:43:26.625Z,8744.00
2018-06-21T09:44:26.635Z,8036.00
2018-06-21T09:45:26.647Z,7540.00
2018-06-21T09:46:33.877Z,8480.00
2018-06-21T09:47:26.665Z,8544.00
2018-06-21T09:48:26.677Z,8468.00
2018-06-21T09:49:26.682Z,7684.00
2018-06-21T09:50:26.695Z,8152.00
2018-06-21T09:51:26.700Z,9312.00
2018-06-21T09:52:26.749Z,9400.00
2018-06-21T09:53:26.724Z,9704.00
2018-06-21T09:54:26.733Z,9828.00
2018-06-21T09:55:26.745Z,9812.00
2018-06-21T09:56:26.753Z,9784.00
2018-06-21T09:57:26.762Z,9964.00
2018-06-21T09:58:26.775Z,10244.00
2018-06-21T09:59:26.783Z,10500.00
2018-06-21T10:00:26.792Z,10328.00
2018-06-21T10:01:26.803Z,10668.00
2018-06-21T10:02:26.814Z,11352.00
2018-06-21T10:03:26.822Z,11628.00
2018-06-21T10:04:26.838Z,11936.00
2018-06-21T10:05:26.843Z,12648.00
2018-06-21T10:06:26.853Z,12316.00
2018-06-21T10:07:26.865Z,12144.00
2018-06-21T10:08:26.867Z,12016.00
2018-06-21T10:09:26.882Z,11968.00
2018-06-21T10:10:26.890Z,11568.00
2018-06-21T10:11:26.908Z,11612.00
2018-06-21T10:12:26.910Z,11620.00
2018-06-21T10:13:26.924Z,11796.00
2018-06-21T10:14:26.934Z,11532.00
2018-06-21T10:15:26.944Z,11360.00
2018-06-21T10:16:26.954Z,11144.00
2018-06-21T10:17:26.967Z,10760.00
2018-06-21T10:18:26.979Z,10644.00
2018-06-21T10:19:26.989Z,10844.00
2018-06-21T10:20:27.069Z,11036.00
2018-06-21T10:21:27.010Z,11256.00
2018-06-21T10:22:27.024Z,11388.00
2018-06-21T10:23:27.031Z,11376.00
2018-06-21T10:24:27.038Z,11520.00
2018-06-21T10:25:27.047Z,11544.00
2018-06-21T10:26:27.061Z,11420.00
2018-06-21T10:27:27.072Z,11372.00
2018-06-21T10:28:27.082Z,10956.00
2018-06-21T10:29:27.092Z,10628.00
2018-06-21T10:30:27.107Z,10428.00
2018-06-21T10:31:27.114Z,10172.00
2018-06-21T10:32:27.123Z,10016.00
2018-06-21T10:33:27.133Z,9736.00
2018-06-21T10:34:27.145Z,9596.00
2018-06-21T10:35:27.157Z,9536.00
2018-06-21T10:36:27.163Z,10272.00
2018-06-21T10:37:27.176Z,10876.00
2018-06-21T10:38:27.185Z,11220.00
2018-06-21T10:39:27.196Z,12476.00
2018-06-21T10:40:27.206Z,13540.00
2018-06-21T10:41:27.218Z,13936.00
2018-06-21T10:42:27.268Z,14332.00
2018-06-21T10:43:27.234Z,14164.00
2018-06-21T10:44:27.255Z,14624.00
2018-06-21T10:45:27.259Z,14480.00
2018-06-21T10:46:27.268Z,13804.00
2018-06-21T10:47:27.284Z,13568.00
2018-06-21T10:48:27.292Z,13176.00
2018-06-21T10:49:27.301Z,13812.00
2018-06-21T10:50:27.314Z,13288.00
2018-06-21T10:51:27.324Z,12780.00
2018-06-21T10:52:27.332Z,13152.00
2018-06-21T10:53:27.352Z,13640.00
2018-06-21T10:54:27.359Z,13936.00
2018-06-21T10:55:27.364Z,14640.00
2018-06-21T10:56:27.376Z,15564.00
2018-06-21T10:57:27.388Z,16768.00
2018-06-21T10:58:27.398Z,17184.00
2018-06-21T10:59:27.412Z,17728.00
2018-06-21T11:00:27.419Z,17120.00
2018-06-21T11:01:27.431Z,16896.00
2018-06-21T11:02:27.442Z,15516.00
2018-06-21T11:03:27.457Z,14292.00
2018-06-21T11:04:27.464Z,12336.00
2018-06-21T11:05:27.476Z,11204.00
2018-06-21T11:06:27.486Z,9812.00
2018-06-21T11:07:27.492Z,9672.00
2018-06-21T11:08:27.511Z,10544.00
2018-06-21T11:09:27.521Z,12212.00
2018-06-21T11:10:27.530Z,14404.00
2018-06-21T11:11:27.538Z,16320.00
2018-06-21T11:12:27.548Z,17056.00
2018-06-21T11:13:27.562Z,17184.00
2018-06-21T11:14:27.573Z,17152.00
2018-06-21T11:15:27.577Z,17120.00
2018-06-21T11:16:27.596Z,16960.00
2018-06-21T11:17:27.606Z,16992.00
2018-06-21T11:18:27.620Z,16896.00
2018-06-21T11:19:27.627Z,16768.00
2018-06-21T11:20:27.640Z,16416.00
2018-06-21T11:21:27.659Z,15896.00
2018-06-21T11:22:27.661Z,15280.00
2018-06-21T11:23:27.672Z,14980.00
2018-06-21T11:24:27.686Z,14700.00
2018-06-21T11:25:27.694Z,14128.00
2018-06-21T11:26:27.707Z,13444.00
2018-06-21T11:27:27.716Z,13076.00
2018-06-21T11:28:27.725Z,12996.00
2018-06-21T11:29:27.733Z,12976.00
2018-06-21T11:30:27.747Z,12704.00
2018-06-21T11:31:27.757Z,11484.00
2018-06-21T11:32:27.777Z,11252.00
2018-06-21T11:33:27.780Z,10984.00
2018-06-21T11:34:27.791Z,11044.00
2018-06-21T11:35:27.800Z,11104.00
2018-06-21T11:36:27.808Z,10592.00
2018-06-21T11:37:27.824Z,10280.00
2018-06-21T11:38:27.836Z,10004.00
2018-06-21T11:39:27.847Z,10228.00
2018-06-21T11:40:27.857Z,10416.00
2018-06-21T11:41:27.867Z,10216.00
2018-06-21T11:42:27.878Z,10496.00
2018-06-21T11:43:27.887Z,11100.00
2018-06-21T11:44:27.900Z,11428.00
2018-06-21T11:45:27.909Z,11592.00
2018-06-21T11:46:27.920Z,11948.00
2018-06-21T11:47:27.923Z,11912.00
2018-06-21T11:48:27.935Z,11880.00
2018-06-21T11:49:27.949Z,12520.00
2018-06-21T11:50:27.962Z,12580.00
2018-06-21T11:51:27.980Z,12280.00
2018-06-21T11:52:27.980Z,11936.00
2018-06-21T11:53:27.990Z,12004.00
2018-06-21T11:54:28.005Z,12188.00
2018-06-21T11:55:28.011Z,12676.00
2018-06-21T11:56:28.024Z,13604.00
2018-06-21T11:57:28.027Z,14168.00
2018-06-21T11:58:28.051Z,14260.00
2018-06-21T11:59:28.054Z,15488.00
2018-06-21T12:00:28.060Z,15680.00
2018-06-21T12:01:28.076Z,15232.00
2018-06-21T12:02:28.080Z,16672.00
2018-06-21T12:03:28.164Z,17216.00
2018-06-21T12:04:28.099Z,15820.00
2018-06-21T12:05:28.116Z,15428.00
2018-06-21T12:06:28.121Z,14436.00
2018-06-21T12:07:28.135Z,12304.00
2018-06-21T12:08:28.144Z,12772.00
2018-06-21T12:09:28.155Z,14712.00
2018-06-21T12:10:28.168Z,15460.00
2018-06-21T12:11:28.181Z,14924.00
2018-06-21T12:12:28.188Z,14556.00
2018-06-21T12:13:28.197Z,14664.00
2018-06-21T12:14:28.213Z,14908.00
2018-06-21T12:15:28.223Z,14684.00
2018-06-21T12:16:28.230Z,14672.00
2018-06-21T12:17:28.242Z,14384.00